sensor_id;sensor_type;location;lat;lon;timestamp;P1;durP1;ratioP1;P2;durP2;ratioP2
3101;SDS011;1561;42.666;23.392;2022-11-13T00:01:20;7.17;;;5.87;;
3101;SDS011;1561;42.666;23.392;2022-11-13T00:03:54;11.03;;;6.40;;
3101;SDS011;1561;42.666;23.392;2022-11-13T00:06:26;11.23;;;6.30;;
3101;SDS011;1561;42.666;23.392;2022-11-13T00:08:54;10.10;;;7.87;;
3101;SDS011;1561;42.666;23.392;2022-11-13T00:11:22;11.33;;;7.37;;
3101;SDS011;1561;42.666;23.392;2022-11-13T00:13:49;9.63;;;7.80;;
3101;SDS011;1561;42.666;23.392;2022-11-13T00:16:17;10.40;;;7.90;;
3101;SDS011;1561;42.666;23.392;2022-11-13T00:18:46;13.23;;;7.60;;
3101;SDS011;1561;42.666;23.392;2022-11-13T00:21:17;9.47;;;7.50;;
3101;SDS011;1561;42.666;23.392;2022-11-13T00:23:45;10.67;;;7.67;;
3101;SDS011;1561;42.666;23.392;2022-11-13T00:26:15;8.97;;;7.10;;
3101;SDS011;1561;42.666;23.392;2022-11-13T00:28:44;9.50;;;7.00;;
3101;SDS011;1561;42.666;23.392;2022-11-13T00:31:13;9.90;;;7.47;;
3101;SDS011;1561;42.666;23.392;2022-11-13T00:33:43;9.77;;;7.90;;
3101;SDS011;1561;42.666;23.392;2022-11-13T00:36:14;8.83;;;7.93;;
3101;SDS011;1561;42.666;23.392;2022-11-13T00:38:44;9.47;;;7.80;;
3101;SDS011;1561;42.666;23.392;2022-11-13T00:41:12;10.63;;;7.97;;
3101;SDS011;1561;42.666;23.392;2022-11-13T00:43:39;10.93;;;8.60;;
3101;SDS011;1561;42.666;23.392;2022-11-13T00:46:07;9.20;;;7.57;;
3101;SDS011;1561;42.666;23.392;2022-11-13T00:48:35;9.50;;;7.13;;
3101;SDS011;1561;42.666;23.392;2022-11-13T00:51:02;9.77;;;8.30;;
3101;SDS011;1561;42.666;23.392;2022-11-13T00:53:31;12.67;;;7.70;;
3101;SDS011;1561;42.666;23.392;2022-11-13T00:56:00;8.97;;;7.40;;
3101;SDS011;1561;42.666;23.392;2022-11-13T00:58:30;10.87;;;7.93;;
3101;SDS011;1561;42.666;23.392;2022-11-13T01:01:02;10.50;;;7.97;;
3101;SDS011;1561;42.666;23.392;2022-11-13T01:03:33;12.43;;;8.60;;
3101;SDS011;1561;42.666;23.392;2022-11-13T01:06:08;12.10;;;9.60;;
3101;SDS011;1561;42.666;23.392;2022-11-13T01:08:39;13.60;;;8.13;;
3101;SDS011;1561;42.666;23.392;2022-11-13T01:11:07;13.37;;;10.07;;
3101;SDS011;1561;42.666;23.392;2022-11-13T01:13:37;12.07;;;10.30;;
3101;SDS011;1561;42.666;23.392;2022-11-13T01:16:05;15.67;;;11.40;;
3101;SDS011;1561;42.666;23.392;2022-11-13T01:18:37;14.27;;;10.87;;
3101;SDS011;1561;42.666;23.392;2022-11-13T01:21:08;13.33;;;10.27;;
3101;SDS011;1561;42.666;23.392;2022-11-13T01:23:39;14.93;;;10.33;;
3101;SDS011;1561;42.666;23.392;2022-11-13T01:26:14;12.73;;;9.43;;
3101;SDS011;1561;42.666;23.392;2022-11-13T01:28:45;9.87;;;8.33;;
3101;SDS011;1561;42.666;23.392;2022-11-13T01:31:18;11.30;;;8.70;;
3101;SDS011;1561;42.666;23.392;2022-11-13T01:33:48;11.97;;;8.87;;
3101;SDS011;1561;42.666;23.392;2022-11-13T01:36:16;11.97;;;9.67;;
3101;SDS011;1561;42.666;23.392;2022-11-13T01:38:50;10.87;;;8.43;;
3101;SDS011;1561;42.666;23.392;2022-11-13T01:41:20;10.00;;;7.90;;
3101;SDS011;1561;42.666;23.392;2022-11-13T01:43:49;11.47;;;8.20;;
3101;SDS011;1561;42.666;23.392;2022-11-13T01:46:24;11.73;;;8.67;;
3101;SDS011;1561;42.666;23.392;2022-11-13T01:51:56;11.40;;;8.30;;
3101;SDS011;1561;42.666;23.392;2022-11-13T01:54:30;10.30;;;7.63;;
3101;SDS011;1561;42.666;23.392;2022-11-13T01:56:59;15.07;;;9.43;;
3101;SDS011;1561;42.666;23.392;2022-11-13T01:59:31;12.63;;;8.40;;
3101;SDS011;1561;42.666;23.392;2022-11-13T02:02:00;11.87;;;8.33;;
3101;SDS011;1561;42.666;23.392;2022-11-13T02:04:27;13.27;;;9.77;;
3101;SDS011;1561;42.666;23.392;2022-11-13T02:06:56;12.23;;;8.67;;
3101;SDS011;1561;42.666;23.392;2022-11-13T02:09:26;12.17;;;8.20;;
3101;SDS011;1561;42.666;23.392;2022-11-13T02:12:01;11.90;;;9.30;;
3101;SDS011;1561;42.666;23.392;2022-11-13T02:14:30;10.97;;;8.13;;
3101;SDS011;1561;42.666;23.392;2022-11-13T02:17:01;10.80;;;8.30;;
3101;SDS011;1561;42.666;23.392;2022-11-13T02:19:32;11.83;;;9.13;;
3101;SDS011;1561;42.666;23.392;2022-11-13T02:22:03;9.73;;;8.13;;
3101;SDS011;1561;42.666;23.392;2022-11-13T02:24:39;10.37;;;8.87;;
3101;SDS011;1561;42.666;23.392;2022-11-13T02:27:10;10.50;;;8.80;;
3101;SDS011;1561;42.666;23.392;2022-11-13T02:29:42;11.90;;;9.20;;
3101;SDS011;1561;42.666;23.392;2022-11-13T02:32:09;13.60;;;8.67;;
3101;SDS011;1561;42.666;23.392;2022-11-13T02:34:37;16.80;;;9.43;;
3101;SDS011;1561;42.666;23.392;2022-11-13T02:37:04;10.40;;;8.27;;
3101;SDS011;1561;42.666;23.392;2022-11-13T02:39:32;10.60;;;8.40;;
3101;SDS011;1561;42.666;23.392;2022-11-13T02:42:05;12.33;;;8.40;;
3101;SDS011;1561;42.666;23.392;2022-11-13T02:44:34;10.53;;;8.47;;
3101;SDS011;1561;42.666;23.392;2022-11-13T02:47:01;10.10;;;8.00;;
3101;SDS011;1561;42.666;23.392;2022-11-13T02:49:28;10.60;;;8.30;;
3101;SDS011;1561;42.666;23.392;2022-11-13T02:51:58;10.53;;;8.57;;
3101;SDS011;1561;42.666;23.392;2022-11-13T02:54:25;13.90;;;8.30;;
3101;SDS011;1561;42.666;23.392;2022-11-13T02:56:52;12.10;;;8.20;;
3101;SDS011;1561;42.666;23.392;2022-11-13T02:59:23;9.50;;;7.17;;
3101;SDS011;1561;42.666;23.392;2022-11-13T03:01:52;12.80;;;9.27;;
3101;SDS011;1561;42.666;23.392;2022-11-13T03:04:20;12.40;;;8.83;;
3101;SDS011;1561;42.666;23.392;2022-11-13T03:06:48;12.53;;;8.73;;
3101;SDS011;1561;42.666;23.392;2022-11-13T03:09:19;11.37;;;9.37;;
3101;SDS011;1561;42.666;23.392;2022-11-13T03:11:46;12.40;;;8.77;;
3101;SDS011;1561;42.666;23.392;2022-11-13T03:14:15;12.07;;;8.57;;
3101;SDS011;1561;42.666;23.392;2022-11-13T03:16:45;11.00;;;8.70;;
3101;SDS011;1561;42.666;23.392;2022-11-13T03:19:14;12.60;;;8.17;;
3101;SDS011;1561;42.666;23.392;2022-11-13T03:21:42;10.30;;;8.27;;
3101;SDS011;1561;42.666;23.392;2022-11-13T03:24:10;10.20;;;8.07;;
3101;SDS011;1561;42.666;23.392;2022-11-13T03:26:37;11.47;;;8.47;;
3101;SDS011;1561;42.666;23.392;2022-11-13T03:29:04;10.20;;;8.63;;
3101;SDS011;1561;42.666;23.392;2022-11-13T03:31:32;10.47;;;8.57;;
3101;SDS011;1561;42.666;23.392;2022-11-13T03:34:01;12.90;;;8.43;;
3101;SDS011;1561;42.666;23.392;2022-11-13T03:36:29;11.07;;;8.83;;
3101;SDS011;1561;42.666;23.392;2022-11-13T03:38:57;9.70;;;7.80;;
3101;SDS011;1561;42.666;23.392;2022-11-13T03:41:24;11.00;;;8.70;;
3101;SDS011;1561;42.666;23.392;2022-11-13T03:43:51;15.27;;;8.93;;
3101;SDS011;1561;42.666;23.392;2022-11-13T03:46:19;9.57;;;8.20;;
3101;SDS011;1561;42.666;23.392;2022-11-13T03:48:47;10.60;;;8.33;;
3101;SDS011;1561;42.666;23.392;2022-11-13T03:51:18;15.47;;;8.80;;
3101;SDS011;1561;42.666;23.392;2022-11-13T03:53:45;10.73;;;8.50;;
3101;SDS011;1561;42.666;23.392;2022-11-13T03:56:14;10.03;;;8.30;;
3101;SDS011;1561;42.666;23.392;2022-11-13T03:58:44;12.57;;;8.63;;
3101;SDS011;1561;42.666;23.392;2022-11-13T04:01:14;11.80;;;8.67;;
3101;SDS011;1561;42.666;23.392;2022-11-13T04:03:41;11.83;;;9.30;;
3101;SDS011;1561;42.666;23.392;2022-11-13T04:06:08;12.80;;;9.60;;
3101;SDS011;1561;42.666;23.392;2022-11-13T04:08:37;9.20;;;7.77;;
3101;SDS011;1561;42.666;23.392;2022-11-13T04:11:07;14.87;;;9.23;;
3101;SDS011;1561;42.666;23.392;2022-11-13T04:13:37;12.13;;;8.80;;
3101;SDS011;1561;42.666;23.392;2022-11-13T04:16:07;10.13;;;8.50;;
3101;SDS011;1561;42.666;23.392;2022-11-13T04:18:34;10.50;;;8.53;;
3101;SDS011;1561;42.666;23.392;2022-11-13T04:21:03;12.20;;;9.03;;
3101;SDS011;1561;42.666;23.392;2022-11-13T04:23:33;11.30;;;9.80;;
3101;SDS011;1561;42.666;23.392;2022-11-13T04:26:02;11.70;;;9.10;;
3101;SDS011;1561;42.666;23.392;2022-11-13T04:28:36;17.90;;;10.53;;
3101;SDS011;1561;42.666;23.392;2022-11-13T04:31:05;15.07;;;9.90;;
3101;SDS011;1561;42.666;23.392;2022-11-13T04:33:33;13.70;;;9.20;;
3101;SDS011;1561;42.666;23.392;2022-11-13T04:36:02;13.43;;;10.70;;
3101;SDS011;1561;42.666;23.392;2022-11-13T04:38:29;15.67;;;10.00;;
3101;SDS011;1561;42.666;23.392;2022-11-13T04:40:56;14.47;;;10.40;;
3101;SDS011;1561;42.666;23.392;2022-11-13T04:43:39;14.07;;;10.57;;
3101;SDS011;1561;42.666;23.392;2022-11-13T04:46:07;13.23;;;10.97;;
3101;SDS011;1561;42.666;23.392;2022-11-13T04:48:34;17.10;;;12.07;;
3101;SDS011;1561;42.666;23.392;2022-11-13T04:51:09;17.47;;;12.90;;
3101;SDS011;1561;42.666;23.392;2022-11-13T04:53:38;19.70;;;13.50;;
3101;SDS011;1561;42.666;23.392;2022-11-13T04:56:06;13.20;;;9.83;;
3101;SDS011;1561;42.666;23.392;2022-11-13T04:58:34;20.73;;;14.33;;
3101;SDS011;1561;42.666;23.392;2022-11-13T05:01:04;18.77;;;14.03;;
3101;SDS011;1561;42.666;23.392;2022-11-13T05:03:31;20.30;;;14.50;;
3101;SDS011;1561;42.666;23.392;2022-11-13T05:06:02;18.50;;;14.30;;
3101;SDS011;1561;42.666;23.392;2022-11-13T05:08:33;19.20;;;14.30;;
3101;SDS011;1561;42.666;23.392;2022-11-13T05:11:05;22.13;;;14.47;;
3101;SDS011;1561;42.666;23.392;2022-11-13T05:13:33;19.27;;;14.33;;
3101;SDS011;1561;42.666;23.392;2022-11-13T05:16:01;19.30;;;14.10;;
3101;SDS011;1561;42.666;23.392;2022-11-13T05:18:39;22.27;;;15.40;;
3101;SDS011;1561;42.666;23.392;2022-11-13T05:21:08;18.10;;;14.17;;
3101;SDS011;1561;42.666;23.392;2022-11-13T05:23:35;24.80;;;14.13;;
3101;SDS011;1561;42.666;23.392;2022-11-13T05:26:05;19.00;;;14.93;;
3101;SDS011;1561;42.666;23.392;2022-11-13T05:28:35;20.33;;;13.70;;
3101;SDS011;1561;42.666;23.392;2022-11-13T05:31:04;17.90;;;13.80;;
3101;SDS011;1561;42.666;23.392;2022-11-13T05:33:35;17.73;;;14.23;;
3101;SDS011;1561;42.666;23.392;2022-11-13T05:36:03;21.70;;;15.23;;
3101;SDS011;1561;42.666;23.392;2022-11-13T05:38:32;20.37;;;14.70;;
3101;SDS011;1561;42.666;23.392;2022-11-13T05:41:01;18.40;;;13.77;;
3101;SDS011;1561;42.666;23.392;2022-11-13T05:43:28;24.53;;;14.87;;
3101;SDS011;1561;42.666;23.392;2022-11-13T05:46:01;21.20;;;14.97;;
3101;SDS011;1561;42.666;23.392;2022-11-13T05:48:30;21.03;;;15.40;;
3101;SDS011;1561;42.666;23.392;2022-11-13T05:51:03;21.20;;;14.30;;
3101;SDS011;1561;42.666;23.392;2022-11-13T05:53:32;21.00;;;14.43;;
3101;SDS011;1561;42.666;23.392;2022-11-13T05:56:00;17.50;;;13.30;;
3101;SDS011;1561;42.666;23.392;2022-11-13T05:58:30;18.73;;;14.27;;
3101;SDS011;1561;42.666;23.392;2022-11-13T06:01:04;20.37;;;14.47;;
3101;SDS011;1561;42.666;23.392;2022-11-13T06:03:36;20.93;;;14.87;;
3101;SDS011;1561;42.666;23.392;2022-11-13T06:06:07;20.53;;;15.23;;
3101;SDS011;1561;42.666;23.392;2022-11-13T06:08:39;22.13;;;13.90;;
3101;SDS011;1561;42.666;23.392;2022-11-13T06:11:18;23.20;;;14.77;;
3101;SDS011;1561;42.666;23.392;2022-11-13T06:13:47;21.53;;;14.93;;
3101;SDS011;1561;42.666;23.392;2022-11-13T06:16:16;34.20;;;19.00;;
3101;SDS011;1561;42.666;23.392;2022-11-13T06:18:47;21.53;;;13.90;;
3101;SDS011;1561;42.666;23.392;2022-11-13T06:21:20;22.37;;;12.87;;
3101;SDS011;1561;42.666;23.392;2022-11-13T06:23:49;20.80;;;13.17;;
3101;SDS011;1561;42.666;23.392;2022-11-13T06:26:20;21.50;;;14.67;;
3101;SDS011;1561;42.666;23.392;2022-11-13T06:28:53;21.63;;;13.43;;
3101;SDS011;1561;42.666;23.392;2022-11-13T06:31:22;17.83;;;12.40;;
3101;SDS011;1561;42.666;23.392;2022-11-13T06:33:53;21.20;;;14.30;;
3101;SDS011;1561;42.666;23.392;2022-11-13T06:36:26;19.10;;;14.17;;
3101;SDS011;1561;42.666;23.392;2022-11-13T06:39:00;18.70;;;12.77;;
3101;SDS011;1561;42.666;23.392;2022-11-13T06:41:32;19.00;;;12.47;;
3101;SDS011;1561;42.666;23.392;2022-11-13T06:44:02;21.23;;;15.20;;
3101;SDS011;1561;42.666;23.392;2022-11-13T06:46:30;22.73;;;14.03;;
3101;SDS011;1561;42.666;23.392;2022-11-13T06:48:59;20.47;;;15.43;;
3101;SDS011;1561;42.666;23.392;2022-11-13T06:51:33;20.00;;;13.67;;
3101;SDS011;1561;42.666;23.392;2022-11-13T06:54:00;23.03;;;14.97;;
3101;SDS011;1561;42.666;23.392;2022-11-13T06:56:28;20.40;;;12.73;;
3101;SDS011;1561;42.666;23.392;2022-11-13T06:58:55;21.80;;;14.93;;
3101;SDS011;1561;42.666;23.392;2022-11-13T07:01:33;20.33;;;13.57;;
3101;SDS011;1561;42.666;23.392;2022-11-13T07:04:07;21.37;;;15.20;;
3101;SDS011;1561;42.666;23.392;2022-11-13T07:06:43;26.50;;;16.83;;
3101;SDS011;1561;42.666;23.392;2022-11-13T07:09:13;22.90;;;16.37;;
3101;SDS011;1561;42.666;23.392;2022-11-13T07:11:43;23.57;;;14.50;;
3101;SDS011;1561;42.666;23.392;2022-11-13T07:14:15;22.30;;;13.23;;
3101;SDS011;1561;42.666;23.392;2022-11-13T07:16:44;20.80;;;15.70;;
3101;SDS011;1561;42.666;23.392;2022-11-13T07:19:12;21.93;;;13.40;;
3101;SDS011;1561;42.666;23.392;2022-11-13T07:21:43;20.87;;;14.70;;
3101;SDS011;1561;42.666;23.392;2022-11-13T07:24:15;23.03;;;13.90;;
3101;SDS011;1561;42.666;23.392;2022-11-13T07:26:43;23.50;;;15.23;;
3101;SDS011;1561;42.666;23.392;2022-11-13T07:29:10;24.10;;;14.50;;
3101;SDS011;1561;42.666;23.392;2022-11-13T07:31:41;22.57;;;15.90;;
3101;SDS011;1561;42.666;23.392;2022-11-13T07:34:10;24.43;;;15.50;;
3101;SDS011;1561;42.666;23.392;2022-11-13T07:36:41;24.13;;;15.90;;
3101;SDS011;1561;42.666;23.392;2022-11-13T07:39:15;21.80;;;15.63;;
3101;SDS011;1561;42.666;23.392;2022-11-13T07:41:45;23.40;;;15.00;;
3101;SDS011;1561;42.666;23.392;2022-11-13T07:44:12;23.53;;;15.30;;
3101;SDS011;1561;42.666;23.392;2022-11-13T07:46:41;23.50;;;16.33;;
3101;SDS011;1561;42.666;23.392;2022-11-13T07:49:08;19.30;;;14.97;;
3101;SDS011;1561;42.666;23.392;2022-11-13T07:51:43;28.50;;;18.87;;
3101;SDS011;1561;42.666;23.392;2022-11-13T07:54:11;21.10;;;16.83;;
3101;SDS011;1561;42.666;23.392;2022-11-13T07:56:43;23.67;;;16.53;;
3101;SDS011;1561;42.666;23.392;2022-11-13T07:59:12;21.30;;;15.57;;
3101;SDS011;1561;42.666;23.392;2022-11-13T08:01:40;24.03;;;16.97;;
3101;SDS011;1561;42.666;23.392;2022-11-13T08:04:08;24.57;;;16.90;;
3101;SDS011;1561;42.666;23.392;2022-11-13T08:06:44;27.13;;;18.90;;
3101;SDS011;1561;42.666;23.392;2022-11-13T08:09:13;23.43;;;15.23;;
3101;SDS011;1561;42.666;23.392;2022-11-13T08:11:40;22.33;;;16.77;;
3101;SDS011;1561;42.666;23.392;2022-11-13T08:14:09;22.83;;;16.43;;
3101;SDS011;1561;42.666;23.392;2022-11-13T08:16:36;21.77;;;16.53;;
3101;SDS011;1561;42.666;23.392;2022-11-13T08:19:04;26.73;;;17.43;;
3101;SDS011;1561;42.666;23.392;2022-11-13T08:21:32;24.83;;;17.67;;
3101;SDS011;1561;42.666;23.392;2022-11-13T08:24:08;18.50;;;13.93;;
3101;SDS011;1561;42.666;23.392;2022-11-13T08:26:38;20.47;;;16.10;;
3101;SDS011;1561;42.666;23.392;2022-11-13T08:29:06;20.70;;;15.77;;
3101;SDS011;1561;42.666;23.392;2022-11-13T08:31:36;22.60;;;15.70;;
3101;SDS011;1561;42.666;23.392;2022-11-13T08:34:04;26.60;;;17.63;;
3101;SDS011;1561;42.666;23.392;2022-11-13T08:36:31;28.93;;;18.37;;
3101;SDS011;1561;42.666;23.392;2022-11-13T08:39:08;22.57;;;15.17;;
3101;SDS011;1561;42.666;23.392;2022-11-13T08:41:39;22.80;;;17.47;;
3101;SDS011;1561;42.666;23.392;2022-11-13T08:44:08;27.27;;;19.37;;
3101;SDS011;1561;42.666;23.392;2022-11-13T08:46:37;29.60;;;19.87;;
3101;SDS011;1561;42.666;23.392;2022-11-13T08:49:06;22.67;;;17.70;;
3101;SDS011;1561;42.666;23.392;2022-11-13T08:51:38;28.13;;;18.57;;
3101;SDS011;1561;42.666;23.392;2022-11-13T08:54:06;23.77;;;19.00;;
3101;SDS011;1561;42.666;23.392;2022-11-13T08:56:37;22.67;;;17.80;;
3101;SDS011;1561;42.666;23.392;2022-11-13T08:59:10;28.30;;;18.83;;
3101;SDS011;1561;42.666;23.392;2022-11-13T09:01:39;23.20;;;16.90;;
3101;SDS011;1561;42.666;23.392;2022-11-13T09:04:06;21.30;;;16.50;;
3101;SDS011;1561;42.666;23.392;2022-11-13T09:06:34;28.10;;;18.90;;
3101;SDS011;1561;42.666;23.392;2022-11-13T09:09:19;28.03;;;18.13;;
3101;SDS011;1561;42.666;23.392;2022-11-13T09:14:39;31.43;;;18.80;;
3101;SDS011;1561;42.666;23.392;2022-11-13T09:17:09;24.00;;;17.53;;
3101;SDS011;1561;42.666;23.392;2022-11-13T09:19:37;20.73;;;15.97;;
3101;SDS011;1561;42.666;23.392;2022-11-13T09:22:26;22.67;;;17.03;;
3101;SDS011;1561;42.666;23.392;2022-11-13T09:24:55;24.50;;;17.07;;
3101;SDS011;1561;42.666;23.392;2022-11-13T09:27:25;22.67;;;17.10;;
3101;SDS011;1561;42.666;23.392;2022-11-13T09:29:55;23.47;;;16.70;;
3101;SDS011;1561;42.666;23.392;2022-11-13T09:32:22;21.90;;;16.80;;
3101;SDS011;1561;42.666;23.392;2022-11-13T09:34:52;23.10;;;16.33;;
3101;SDS011;1561;42.666;23.392;2022-11-13T09:37:34;19.80;;;16.57;;
3101;SDS011;1561;42.666;23.392;2022-11-13T09:40:02;25.73;;;17.23;;
3101;SDS011;1561;42.666;23.392;2022-11-13T09:42:31;23.37;;;18.23;;
3101;SDS011;1561;42.666;23.392;2022-11-13T09:45:05;25.37;;;16.73;;
3101;SDS011;1561;42.666;23.392;2022-11-13T09:47:45;23.40;;;18.53;;
3101;SDS011;1561;42.666;23.392;2022-11-13T09:50:16;22.70;;;17.23;;
3101;SDS011;1561;42.666;23.392;2022-11-13T09:52:46;21.97;;;17.43;;
3101;SDS011;1561;42.666;23.392;2022-11-13T09:55:18;22.20;;;16.60;;
3101;SDS011;1561;42.666;23.392;2022-11-13T09:57:50;24.47;;;17.30;;
3101;SDS011;1561;42.666;23.392;2022-11-13T10:00:29;23.07;;;16.53;;
3101;SDS011;1561;42.666;23.392;2022-11-13T10:03:04;24.60;;;17.00;;
3101;SDS011;1561;42.666;23.392;2022-11-13T10:05:57;25.03;;;18.23;;
3101;SDS011;1561;42.666;23.392;2022-11-13T10:08:33;25.70;;;17.60;;
3101;SDS011;1561;42.666;23.392;2022-11-13T10:11:10;24.93;;;16.00;;
3101;SDS011;1561;42.666;23.392;2022-11-13T10:13:48;24.90;;;18.37;;
3101;SDS011;1561;42.666;23.392;2022-11-13T10:16:25;23.70;;;17.40;;
3101;SDS011;1561;42.666;23.392;2022-11-13T10:19:08;23.53;;;16.70;;
3101;SDS011;1561;42.666;23.392;2022-11-13T10:21:42;24.70;;;16.63;;
3101;SDS011;1561;42.666;23.392;2022-11-13T10:24:15;24.50;;;18.37;;
3101;SDS011;1561;42.666;23.392;2022-11-13T10:26:48;25.03;;;18.17;;
3101;SDS011;1561;42.666;23.392;2022-11-13T10:29:20;25.10;;;18.60;;
3101;SDS011;1561;42.666;23.392;2022-11-13T10:31:50;24.63;;;17.73;;
3101;SDS011;1561;42.666;23.392;2022-11-13T10:34:19;28.20;;;17.40;;
3101;SDS011;1561;42.666;23.392;2022-11-13T10:36:55;30.60;;;19.57;;
3101;SDS011;1561;42.666;23.392;2022-11-13T10:39:39;24.00;;;18.57;;
3101;SDS011;1561;42.666;23.392;2022-11-13T10:42:18;50.13;;;27.70;;
3101;SDS011;1561;42.666;23.392;2022-11-13T10:44:54;29.70;;;17.63;;
3101;SDS011;1561;42.666;23.392;2022-11-13T10:47:24;22.93;;;17.10;;
3101;SDS011;1561;42.666;23.392;2022-11-13T10:50:07;23.30;;;17.70;;
3101;SDS011;1561;42.666;23.392;2022-11-13T10:52:42;23.00;;;16.93;;
3101;SDS011;1561;42.666;23.392;2022-11-13T10:55:14;25.07;;;19.23;;
3101;SDS011;1561;42.666;23.392;2022-11-13T10:57:53;21.53;;;17.73;;
3101;SDS011;1561;42.666;23.392;2022-11-13T11:00:24;25.23;;;17.90;;
3101;SDS011;1561;42.666;23.392;2022-11-13T11:02:55;24.53;;;18.43;;
3101;SDS011;1561;42.666;23.392;2022-11-13T11:05:23;24.30;;;18.03;;
3101;SDS011;1561;42.666;23.392;2022-11-13T11:07:51;21.90;;;16.60;;
3101;SDS011;1561;42.666;23.392;2022-11-13T11:10:21;34.50;;;24.20;;
3101;SDS011;1561;42.666;23.392;2022-11-13T11:12:54;24.23;;;16.30;;
3101;SDS011;1561;42.666;23.392;2022-11-13T11:15:25;21.97;;;18.20;;
3101;SDS011;1561;42.666;23.392;2022-11-13T11:17:58;24.27;;;17.10;;
3101;SDS011;1561;42.666;23.392;2022-11-13T11:20:35;26.40;;;17.70;;
3101;SDS011;1561;42.666;23.392;2022-11-13T11:23:22;23.27;;;18.20;;
3101;SDS011;1561;42.666;23.392;2022-11-13T11:26:04;24.53;;;17.60;;
3101;SDS011;1561;42.666;23.392;2022-11-13T11:28:47;24.80;;;19.90;;
3101;SDS011;1561;42.666;23.392;2022-11-13T11:31:28;24.43;;;17.10;;
3101;SDS011;1561;42.666;23.392;2022-11-13T11:34:11;23.80;;;17.97;;
3101;SDS011;1561;42.666;23.392;2022-11-13T11:36:48;25.07;;;18.30;;
3101;SDS011;1561;42.666;23.392;2022-11-13T11:39:25;24.13;;;17.30;;
3101;SDS011;1561;42.666;23.392;2022-11-13T11:42:03;27.57;;;18.20;;
3101;SDS011;1561;42.666;23.392;2022-11-13T11:47:43;24.87;;;19.20;;
3101;SDS011;1561;42.666;23.392;2022-11-13T11:50:12;23.60;;;18.93;;
3101;SDS011;1561;42.666;23.392;2022-11-13T11:52:44;24.37;;;18.40;;
3101;SDS011;1561;42.666;23.392;2022-11-13T11:55:26;26.63;;;19.00;;
3101;SDS011;1561;42.666;23.392;2022-11-13T11:58:04;24.20;;;18.30;;
3101;SDS011;1561;42.666;23.392;2022-11-13T12:00:48;26.20;;;18.50;;
3101;SDS011;1561;42.666;23.392;2022-11-13T12:06:23;27.03;;;18.17;;
3101;SDS011;1561;42.666;23.392;2022-11-13T12:09:06;23.03;;;17.53;;
3101;SDS011;1561;42.666;23.392;2022-11-13T12:11:41;22.53;;;17.07;;
3101;SDS011;1561;42.666;23.392;2022-11-13T12:14:26;22.83;;;16.77;;
3101;SDS011;1561;42.666;23.392;2022-11-13T12:17:17;23.53;;;18.33;;
3101;SDS011;1561;42.666;23.392;2022-11-13T12:20:04;24.23;;;19.10;;
3101;SDS011;1561;42.666;23.392;2022-11-13T12:22:43;25.53;;;17.90;;
3101;SDS011;1561;42.666;23.392;2022-11-13T12:25:19;24.10;;;17.60;;
3101;SDS011;1561;42.666;23.392;2022-11-13T12:27:58;26.20;;;18.47;;
3101;SDS011;1561;42.666;23.392;2022-11-13T12:30:46;23.40;;;17.50;;
3101;SDS011;1561;42.666;23.392;2022-11-13T12:33:39;23.83;;;18.50;;
3101;SDS011;1561;42.666;23.392;2022-11-13T12:36:30;25.27;;;18.30;;
3101;SDS011;1561;42.666;23.392;2022-11-13T12:39:06;23.13;;;16.90;;
3101;SDS011;1561;42.666;23.392;2022-11-13T12:42:02;25.10;;;17.40;;
3101;SDS011;1561;42.666;23.392;2022-11-13T12:44:40;23.37;;;17.80;;
3101;SDS011;1561;42.666;23.392;2022-11-13T12:47:19;23.07;;;17.27;;
3101;SDS011;1561;42.666;23.392;2022-11-13T12:49:59;24.57;;;17.17;;
3101;SDS011;1561;42.666;23.392;2022-11-13T12:52:55;24.47;;;17.67;;
3101;SDS011;1561;42.666;23.392;2022-11-13T12:55:25;21.00;;;15.43;;
3101;SDS011;1561;42.666;23.392;2022-11-13T12:58:04;24.07;;;15.57;;
3101;SDS011;1561;42.666;23.392;2022-11-13T13:00:50;24.20;;;14.80;;
3101;SDS011;1561;42.666;23.392;2022-11-13T13:03:32;19.77;;;14.47;;
3101;SDS011;1561;42.666;23.392;2022-11-13T13:06:26;20.83;;;15.90;;
3101;SDS011;1561;42.666;23.392;2022-11-13T13:09:32;21.63;;;16.20;;
3101;SDS011;1561;42.666;23.392;2022-11-13T13:12:11;24.70;;;17.13;;
3101;SDS011;1561;42.666;23.392;2022-11-13T13:17:46;28.30;;;19.63;;
3101;SDS011;1561;42.666;23.392;2022-11-13T13:20:28;19.70;;;15.37;;
3101;SDS011;1561;42.666;23.392;2022-11-13T13:22:59;20.90;;;15.20;;
3101;SDS011;1561;42.666;23.392;2022-11-13T13:25:35;24.80;;;16.73;;
3101;SDS011;1561;42.666;23.392;2022-11-13T13:28:15;21.37;;;15.13;;
3101;SDS011;1561;42.666;23.392;2022-11-13T13:30:55;24.70;;;18.30;;
3101;SDS011;1561;42.666;23.392;2022-11-13T13:33:38;24.47;;;16.73;;
3101;SDS011;1561;42.666;23.392;2022-11-13T13:36:28;22.87;;;16.57;;
3101;SDS011;1561;42.666;23.392;2022-11-13T13:39:04;23.43;;;18.23;;
3101;SDS011;1561;42.666;23.392;2022-11-13T13:45:10;26.27;;;18.03;;
3101;SDS011;1561;42.666;23.392;2022-11-13T13:47:52;25.77;;;18.30;;
3101;SDS011;1561;42.666;23.392;2022-11-13T13:50:23;27.50;;;18.20;;
3101;SDS011;1561;42.666;23.392;2022-11-13T13:52:56;29.50;;;19.93;;
3101;SDS011;1561;42.666;23.392;2022-11-13T13:55:26;22.97;;;17.13;;
3101;SDS011;1561;42.666;23.392;2022-11-13T13:58:06;23.97;;;17.10;;
3101;SDS011;1561;42.666;23.392;2022-11-13T14:00:41;26.97;;;19.70;;
3101;SDS011;1561;42.666;23.392;2022-11-13T14:03:15;28.20;;;19.80;;
3101;SDS011;1561;42.666;23.392;2022-11-13T14:05:45;29.47;;;18.97;;
3101;SDS011;1561;42.666;23.392;2022-11-13T14:08:15;26.67;;;19.30;;
3101;SDS011;1561;42.666;23.392;2022-11-13T14:10:47;26.95;;;20.52;;
3101;SDS011;1561;42.666;23.392;2022-11-13T14:13:32;26.73;;;18.53;;
3101;SDS011;1561;42.666;23.392;2022-11-13T14:16:02;29.40;;;19.67;;
3101;SDS011;1561;42.666;23.392;2022-11-13T14:18:31;26.60;;;17.93;;
3101;SDS011;1561;42.666;23.392;2022-11-13T14:21:00;29.20;;;19.70;;
3101;SDS011;1561;42.666;23.392;2022-11-13T14:23:30;31.83;;;22.10;;
3101;SDS011;1561;42.666;23.392;2022-11-13T14:26:09;32.77;;;21.40;;
3101;SDS011;1561;42.666;23.392;2022-11-13T14:28:48;27.70;;;20.07;;
3101;SDS011;1561;42.666;23.392;2022-11-13T14:31:24;34.33;;;21.93;;
3101;SDS011;1561;42.666;23.392;2022-11-13T14:33:59;35.50;;;22.20;;
3101;SDS011;1561;42.666;23.392;2022-11-13T14:36:29;30.27;;;20.90;;
3101;SDS011;1561;42.666;23.392;2022-11-13T14:39:11;35.80;;;22.80;;
3101;SDS011;1561;42.666;23.392;2022-11-13T14:41:47;30.43;;;20.60;;
3101;SDS011;1561;42.666;23.392;2022-11-13T14:44:26;35.40;;;22.17;;
3101;SDS011;1561;42.666;23.392;2022-11-13T14:46:59;39.80;;;25.20;;
3101;SDS011;1561;42.666;23.392;2022-11-13T14:49:31;36.70;;;25.20;;
3101;SDS011;1561;42.666;23.392;2022-11-13T14:52:00;36.10;;;25.93;;
3101;SDS011;1561;42.666;23.392;2022-11-13T14:54:32;40.20;;;26.23;;
3101;SDS011;1561;42.666;23.392;2022-11-13T14:57:07;41.33;;;26.07;;
3101;SDS011;1561;42.666;23.392;2022-11-13T14:59:36;38.67;;;24.43;;
3101;SDS011;1561;42.666;23.392;2022-11-13T15:02:05;38.50;;;24.83;;
3101;SDS011;1561;42.666;23.392;2022-11-13T15:04:33;36.60;;;23.33;;
3101;SDS011;1561;42.666;23.392;2022-11-13T15:07:02;35.37;;;22.43;;
3101;SDS011;1561;42.666;23.392;2022-11-13T15:09:47;35.87;;;23.60;;
3101;SDS011;1561;42.666;23.392;2022-11-13T15:12:15;33.57;;;20.53;;
3101;SDS011;1561;42.666;23.392;2022-11-13T15:14:45;34.63;;;21.37;;
3101;SDS011;1561;42.666;23.392;2022-11-13T15:17:13;29.60;;;20.17;;
3101;SDS011;1561;42.666;23.392;2022-11-13T15:19:41;27.63;;;17.57;;
3101;SDS011;1561;42.666;23.392;2022-11-13T15:22:12;31.90;;;20.50;;
3101;SDS011;1561;42.666;23.392;2022-11-13T15:24:40;32.10;;;21.63;;
3101;SDS011;1561;42.666;23.392;2022-11-13T15:27:09;31.07;;;21.30;;